sensor_id;sensor_type;location;lat;lon;timestamp;P1;durP1;ratioP1;P2;durP2;ratioP2
15536;SDS011;7870;52.448;13.270;2023-05-10T00:00:01;7.75;;;5.40;;
15536;SDS011;7870;52.448;13.270;2023-05-10T00:02:38;7.80;;;5.30;;
15536;SDS011;7870;52.448;13.270;2023-05-10T00:05:05;8.00;;;5.25;;
15536;SDS011;7870;52.448;13.270;2023-05-10T00:07:32;6.90;;;5.22;;
15536;SDS011;7870;52.448;13.270;2023-05-10T00:09:58;8.05;;;5.68;;
15536;SDS011;7870;52.448;13.270;2023-05-10T00:12:25;7.50;;;5.68;;
15536;SDS011;7870;52.448;13.270;2023-05-10T00:14:51;7.03;;;5.13;;
15536;SDS011;7870;52.448;13.270;2023-05-10T00:17:18;8.88;;;5.07;;
15536;SDS011;7870;52.448;13.270;2023-05-10T00:19:44;8.60;;;5.50;;
15536;SDS011;7870;52.448;13.270;2023-05-10T00:22:11;7.40;;;5.28;;
15536;SDS011;7870;52.448;13.270;2023-05-10T00:24:37;11.00;;;5.88;;
15536;SDS011;7870;52.448;13.270;2023-05-10T00:27:04;9.05;;;6.10;;
15536;SDS011;7870;52.448;13.270;2023-05-10T00:29:31;7.75;;;5.65;;
15536;SDS011;7870;52.448;13.270;2023-05-10T00:31:57;7.97;;;5.55;;
15536;SDS011;7870;52.448;13.270;2023-05-10T00:34:24;7.10;;;5.30;;
15536;SDS011;7870;52.448;13.270;2023-05-10T00:36:51;9.23;;;5.82;;
15536;SDS011;7870;52.448;13.270;2023-05-10T00:39:17;6.72;;;5.10;;
15536;SDS011;7870;52.448;13.270;2023-05-10T00:41:44;7.35;;;5.65;;
15536;SDS011;7870;52.448;13.270;2023-05-10T00:44:11;8.13;;;5.35;;
15536;SDS011;7870;52.448;13.270;2023-05-10T00:46:38;7.60;;;5.50;;
15536;SDS011;7870;52.448;13.270;2023-05-10T00:49:04;6.63;;;5.40;;
15536;SDS011;7870;52.448;13.270;2023-05-10T00:51:31;7.55;;;5.15;;
15536;SDS011;7870;52.448;13.270;2023-05-10T00:53:58;6.63;;;5.20;;
15536;SDS011;7870;52.448;13.270;2023-05-10T00:56:25;9.60;;;6.28;;
15536;SDS011;7870;52.448;13.270;2023-05-10T00:58:51;7.43;;;5.85;;
15536;SDS011;7870;52.448;13.270;2023-05-10T01:01:19;8.52;;;6.03;;
15536;SDS011;7870;52.448;13.270;2023-05-10T01:03:46;10.32;;;6.47;;
15536;SDS011;7870;52.448;13.270;2023-05-10T01:06:14;7.07;;;5.90;;
15536;SDS011;7870;52.448;13.270;2023-05-10T01:08:40;6.65;;;5.40;;
15536;SDS011;7870;52.448;13.270;2023-05-10T01:11:07;7.25;;;6.07;;
15536;SDS011;7870;52.448;13.270;2023-05-10T01:13:37;7.18;;;5.72;;
15536;SDS011;7870;52.448;13.270;2023-05-10T01:16:05;11.35;;;5.90;;
15536;SDS011;7870;52.448;13.270;2023-05-10T01:18:34;9.02;;;5.85;;
15536;SDS011;7870;52.448;13.270;2023-05-10T01:21:15;7.18;;;5.60;;
15536;SDS011;7870;52.448;13.270;2023-05-10T01:26:39;6.95;;;5.35;;
15536;SDS011;7870;52.448;13.270;2023-05-10T01:29:32;6.55;;;5.72;;
15536;SDS011;7870;52.448;13.270;2023-05-10T01:34:48;8.48;;;5.78;;
15536;SDS011;7870;52.448;13.270;2023-05-10T01:37:25;7.93;;;5.53;;
15536;SDS011;7870;52.448;13.270;2023-05-10T01:40:00;7.93;;;5.45;;
15536;SDS011;7870;52.448;13.270;2023-05-10T01:42:35;7.93;;;5.38;;
15536;SDS011;7870;52.448;13.270;2023-05-10T01:45:07;7.85;;;6.10;;
15536;SDS011;7870;52.448;13.270;2023-05-10T01:47:41;7.38;;;5.75;;
15536;SDS011;7870;52.448;13.270;2023-05-10T01:50:15;7.47;;;6.28;;
15536;SDS011;7870;52.448;13.270;2023-05-10T01:52:46;7.07;;;5.70;;
15536;SDS011;7870;52.448;13.270;2023-05-10T01:55:16;7.90;;;5.75;;
15536;SDS011;7870;52.448;13.270;2023-05-10T01:57:44;9.27;;;5.85;;
15536;SDS011;7870;52.448;13.270;2023-05-10T02:00:13;8.13;;;6.40;;
15536;SDS011;7870;52.448;13.270;2023-05-10T02:02:42;6.90;;;5.47;;
15536;SDS011;7870;52.448;13.270;2023-05-10T02:05:12;7.80;;;6.73;;
15536;SDS011;7870;52.448;13.270;2023-05-10T02:07:39;8.30;;;6.07;;
15536;SDS011;7870;52.448;13.270;2023-05-10T02:10:07;7.60;;;6.22;;
15536;SDS011;7870;52.448;13.270;2023-05-10T02:12:37;7.78;;;5.90;;
15536;SDS011;7870;52.448;13.270;2023-05-10T02:15:07;7.68;;;5.50;;
15536;SDS011;7870;52.448;13.270;2023-05-10T02:17:34;8.35;;;6.47;;
15536;SDS011;7870;52.448;13.270;2023-05-10T02:20:03;9.18;;;6.20;;
15536;SDS011;7870;52.448;13.270;2023-05-10T02:22:32;9.35;;;6.45;;
15536;SDS011;7870;52.448;13.270;2023-05-10T02:24:59;9.90;;;6.70;;
15536;SDS011;7870;52.448;13.270;2023-05-10T02:27:27;6.97;;;5.80;;
15536;SDS011;7870;52.448;13.270;2023-05-10T02:29:54;12.50;;;7.05;;
15536;SDS011;7870;52.448;13.270;2023-05-10T02:32:21;9.18;;;6.97;;
15536;SDS011;7870;52.448;13.270;2023-05-10T02:34:49;7.72;;;6.63;;
15536;SDS011;7870;52.448;13.270;2023-05-10T02:37:19;7.90;;;6.60;;
15536;SDS011;7870;52.448;13.270;2023-05-10T02:39:49;7.70;;;6.22;;
15536;SDS011;7870;52.448;13.270;2023-05-10T02:42:18;8.13;;;6.55;;
15536;SDS011;7870;52.448;13.270;2023-05-10T02:44:45;7.13;;;6.38;;
15536;SDS011;7870;52.448;13.270;2023-05-10T02:47:14;7.60;;;6.22;;
15536;SDS011;7870;52.448;13.270;2023-05-10T02:49:40;9.27;;;6.75;;
15536;SDS011;7870;52.448;13.270;2023-05-10T02:52:07;11.15;;;6.70;;
15536;SDS011;7870;52.448;13.270;2023-05-10T02:54:43;8.05;;;6.35;;
15536;SDS011;7870;52.448;13.270;2023-05-10T02:57:14;8.57;;;6.53;;
15536;SDS011;7870;52.448;13.270;2023-05-10T02:59:42;8.30;;;6.75;;
15536;SDS011;7870;52.448;13.270;2023-05-10T03:02:09;9.00;;;6.50;;
15536;SDS011;7870;52.448;13.270;2023-05-10T03:04:36;9.07;;;6.93;;
15536;SDS011;7870;52.448;13.270;2023-05-10T03:07:03;8.23;;;6.18;;
15536;SDS011;7870;52.448;13.270;2023-05-10T03:09:30;10.90;;;6.88;;
15536;SDS011;7870;52.448;13.270;2023-05-10T03:12:05;11.35;;;6.90;;
15536;SDS011;7870;52.448;13.270;2023-05-10T03:14:59;7.45;;;6.25;;
15536;SDS011;7870;52.448;13.270;2023-05-10T03:17:41;9.27;;;7.28;;
15536;SDS011;7870;52.448;13.270;2023-05-10T03:20:22;9.63;;;6.53;;
15536;SDS011;7870;52.448;13.270;2023-05-10T03:23:00;8.30;;;6.30;;
15536;SDS011;7870;52.448;13.270;2023-05-10T03:25:31;7.60;;;6.65;;
15536;SDS011;7870;52.448;13.270;2023-05-10T03:27:59;8.10;;;6.88;;
15536;SDS011;7870;52.448;13.270;2023-05-10T03:30:27;9.30;;;6.68;;
15536;SDS011;7870;52.448;13.270;2023-05-10T03:32:54;10.18;;;6.57;;
15536;SDS011;7870;52.448;13.270;2023-05-10T03:35:21;9.10;;;6.65;;
15536;SDS011;7870;52.448;13.270;2023-05-10T03:37:48;7.97;;;5.90;;
15536;SDS011;7870;52.448;13.270;2023-05-10T03:40:14;12.98;;;7.20;;
15536;SDS011;7870;52.448;13.270;2023-05-10T03:42:42;9.45;;;6.47;;
15536;SDS011;7870;52.448;13.270;2023-05-10T03:45:10;12.18;;;7.10;;
15536;SDS011;7870;52.448;13.270;2023-05-10T03:47:36;8.05;;;6.43;;
15536;SDS011;7870;52.448;13.270;2023-05-10T03:50:03;8.75;;;6.57;;
15536;SDS011;7870;52.448;13.270;2023-05-10T03:52:31;8.18;;;6.05;;
15536;SDS011;7870;52.448;13.270;2023-05-10T03:54:58;8.48;;;6.72;;
15536;SDS011;7870;52.448;13.270;2023-05-10T03:57:24;9.85;;;7.22;;
15536;SDS011;7870;52.448;13.270;2023-05-10T03:59:51;9.52;;;6.05;;
15536;SDS011;7870;52.448;13.270;2023-05-10T04:02:17;8.02;;;5.97;;
15536;SDS011;7870;52.448;13.270;2023-05-10T04:04:44;10.35;;;5.85;;
15536;SDS011;7870;52.448;13.270;2023-05-10T04:07:11;8.45;;;6.35;;
15536;SDS011;7870;52.448;13.270;2023-05-10T04:09:38;8.73;;;6.15;;
15536;SDS011;7870;52.448;13.270;2023-05-10T04:12:05;9.25;;;6.65;;
15536;SDS011;7870;52.448;13.270;2023-05-10T04:14:34;9.80;;;6.60;;
15536;SDS011;7870;52.448;13.270;2023-05-10T04:17:00;7.65;;;6.32;;
15536;SDS011;7870;52.448;13.270;2023-05-10T04:19:30;8.43;;;6.13;;
15536;SDS011;7870;52.448;13.270;2023-05-10T04:21:57;7.57;;;5.43;;
15536;SDS011;7870;52.448;13.270;2023-05-10T04:24:24;6.50;;;5.70;;
15536;SDS011;7870;52.448;13.270;2023-05-10T04:26:51;10.38;;;6.68;;
15536;SDS011;7870;52.448;13.270;2023-05-10T04:29:17;7.22;;;5.57;;
15536;SDS011;7870;52.448;13.270;2023-05-10T04:31:44;8.35;;;5.45;;
15536;SDS011;7870;52.448;13.270;2023-05-10T04:34:10;7.88;;;5.50;;
15536;SDS011;7870;52.448;13.270;2023-05-10T04:36:37;8.18;;;5.68;;
15536;SDS011;7870;52.448;13.270;2023-05-10T04:39:03;10.88;;;6.07;;
15536;SDS011;7870;52.448;13.270;2023-05-10T04:41:30;9.63;;;5.55;;
15536;SDS011;7870;52.448;13.270;2023-05-10T04:43:56;9.32;;;6.05;;
15536;SDS011;7870;52.448;13.270;2023-05-10T04:46:23;7.50;;;5.30;;
15536;SDS011;7870;52.448;13.270;2023-05-10T04:48:50;10.63;;;5.32;;
15536;SDS011;7870;52.448;13.270;2023-05-10T04:51:16;8.20;;;5.97;;
15536;SDS011;7870;52.448;13.270;2023-05-10T04:53:43;7.50;;;5.28;;
15536;SDS011;7870;52.448;13.270;2023-05-10T04:56:22;9.68;;;5.55;;
15536;SDS011;7870;52.448;13.270;2023-05-10T04:58:49;6.55;;;5.00;;
15536;SDS011;7870;52.448;13.270;2023-05-10T05:01:15;6.78;;;4.50;;
15536;SDS011;7870;52.448;13.270;2023-05-10T05:03:42;9.73;;;4.72;;
15536;SDS011;7870;52.448;13.270;2023-05-10T05:06:09;8.20;;;4.88;;
15536;SDS011;7870;52.448;13.270;2023-05-10T05:08:35;6.22;;;4.43;;
15536;SDS011;7870;52.448;13.270;2023-05-10T05:11:02;8.55;;;5.28;;
15536;SDS011;7870;52.448;13.270;2023-05-10T05:13:28;7.97;;;4.57;;
15536;SDS011;7870;52.448;13.270;2023-05-10T05:15:55;8.98;;;5.20;;
15536;SDS011;7870;52.448;13.270;2023-05-10T05:18:22;8.57;;;4.88;;
15536;SDS011;7870;52.448;13.270;2023-05-10T05:20:48;5.65;;;4.32;;
15536;SDS011;7870;52.448;13.270;2023-05-10T05:23:15;7.47;;;4.35;;
15536;SDS011;7870;52.448;13.270;2023-05-10T05:25:42;8.20;;;5.05;;
15536;SDS011;7870;52.448;13.270;2023-05-10T05:28:09;6.47;;;4.82;;
15536;SDS011;7870;52.448;13.270;2023-05-10T05:30:35;8.40;;;4.53;;
15536;SDS011;7870;52.448;13.270;2023-05-10T05:33:02;6.45;;;4.18;;
15536;SDS011;7870;52.448;13.270;2023-05-10T05:35:28;7.75;;;4.53;;
15536;SDS011;7870;52.448;13.270;2023-05-10T05:37:55;7.65;;;4.00;;
15536;SDS011;7870;52.448;13.270;2023-05-10T05:40:22;7.90;;;4.32;;
15536;SDS011;7870;52.448;13.270;2023-05-10T05:42:49;6.70;;;4.07;;
15536;SDS011;7870;52.448;13.270;2023-05-10T05:45:15;6.28;;;3.85;;
15536;SDS011;7870;52.448;13.270;2023-05-10T05:47:43;8.52;;;3.88;;
15536;SDS011;7870;52.448;13.270;2023-05-10T05:50:09;5.72;;;3.58;;
15536;SDS011;7870;52.448;13.270;2023-05-10T05:52:36;5.60;;;3.33;;
15536;SDS011;7870;52.448;13.270;2023-05-10T05:55:02;6.70;;;3.50;;
15536;SDS011;7870;52.448;13.270;2023-05-10T05:57:29;6.25;;;3.70;;
15536;SDS011;7870;52.448;13.270;2023-05-10T05:59:56;6.15;;;3.72;;
15536;SDS011;7870;52.448;13.270;2023-05-10T06:02:22;5.90;;;3.45;;
15536;SDS011;7870;52.448;13.270;2023-05-10T06:04:49;7.03;;;4.00;;
15536;SDS011;7870;52.448;13.270;2023-05-10T06:07:16;5.35;;;3.33;;
15536;SDS011;7870;52.448;13.270;2023-05-10T06:09:43;5.57;;;3.28;;
15536;SDS011;7870;52.448;13.270;2023-05-10T06:12:09;6.03;;;3.65;;
15536;SDS011;7870;52.448;13.270;2023-05-10T06:14:36;7.90;;;3.78;;
15536;SDS011;7870;52.448;13.270;2023-05-10T06:17:02;5.10;;;3.22;;
15536;SDS011;7870;52.448;13.270;2023-05-10T06:19:32;6.90;;;3.95;;
15536;SDS011;7870;52.448;13.270;2023-05-10T06:21:58;8.93;;;3.00;;
15536;SDS011;7870;52.448;13.270;2023-05-10T06:24:25;6.75;;;3.47;;
15536;SDS011;7870;52.448;13.270;2023-05-10T06:26:53;12.23;;;3.00;;
15536;SDS011;7870;52.448;13.270;2023-05-10T06:29:19;5.05;;;3.15;;
15536;SDS011;7870;52.448;13.270;2023-05-10T06:31:46;4.13;;;3.10;;
15536;SDS011;7870;52.448;13.270;2023-05-10T06:34:12;8.20;;;3.47;;
15536;SDS011;7870;52.448;13.270;2023-05-10T06:36:39;6.10;;;2.97;;
15536;SDS011;7870;52.448;13.270;2023-05-10T06:39:06;3.97;;;2.63;;
15536;SDS011;7870;52.448;13.270;2023-05-10T06:41:47;6.35;;;2.97;;
15536;SDS011;7870;52.448;13.270;2023-05-10T06:44:13;7.47;;;2.95;;
15536;SDS011;7870;52.448;13.270;2023-05-10T06:46:40;4.47;;;2.97;;
15536;SDS011;7870;52.448;13.270;2023-05-10T06:49:08;4.70;;;3.00;;
15536;SDS011;7870;52.448;13.270;2023-05-10T06:51:34;6.75;;;2.97;;
15536;SDS011;7870;52.448;13.270;2023-05-10T06:54:01;5.38;;;2.92;;
15536;SDS011;7870;52.448;13.270;2023-05-10T06:56:28;4.70;;;2.60;;
15536;SDS011;7870;52.448;13.270;2023-05-10T06:58:54;6.03;;;3.10;;
15536;SDS011;7870;52.448;13.270;2023-05-10T07:01:22;4.05;;;2.60;;
15536;SDS011;7870;52.448;13.270;2023-05-10T07:03:48;5.95;;;2.50;;
15536;SDS011;7870;52.448;13.270;2023-05-10T07:06:15;7.40;;;2.95;;
15536;SDS011;7870;52.448;13.270;2023-05-10T07:08:58;3.78;;;2.33;;
15536;SDS011;7870;52.448;13.270;2023-05-10T07:11:24;5.40;;;3.00;;
15536;SDS011;7870;52.448;13.270;2023-05-10T07:13:51;6.13;;;2.80;;
15536;SDS011;7870;52.448;13.270;2023-05-10T07:16:17;4.93;;;2.53;;
15536;SDS011;7870;52.448;13.270;2023-05-10T07:18:44;8.93;;;3.17;;
15536;SDS011;7870;52.448;13.270;2023-05-10T07:21:11;4.97;;;2.83;;
15536;SDS011;7870;52.448;13.270;2023-05-10T07:23:37;4.20;;;2.50;;
15536;SDS011;7870;52.448;13.270;2023-05-10T07:26:04;6.10;;;2.63;;
15536;SDS011;7870;52.448;13.270;2023-05-10T07:28:30;6.95;;;2.47;;
15536;SDS011;7870;52.448;13.270;2023-05-10T07:30:57;5.20;;;2.50;;
15536;SDS011;7870;52.448;13.270;2023-05-10T07:33:24;5.05;;;2.50;;
15536;SDS011;7870;52.448;13.270;2023-05-10T07:35:50;7.90;;;2.20;;
15536;SDS011;7870;52.448;13.270;2023-05-10T07:38:17;5.60;;;2.65;;
15536;SDS011;7870;52.448;13.270;2023-05-10T07:40:44;6.72;;;2.88;;
15536;SDS011;7870;52.448;13.270;2023-05-10T07:43:10;7.10;;;2.90;;
15536;SDS011;7870;52.448;13.270;2023-05-10T07:45:37;6.43;;;2.40;;
15536;SDS011;7870;52.448;13.270;2023-05-10T07:48:03;4.95;;;2.60;;
15536;SDS011;7870;52.448;13.270;2023-05-10T07:50:30;3.75;;;2.45;;
15536;SDS011;7870;52.448;13.270;2023-05-10T07:52:57;5.25;;;3.05;;
15536;SDS011;7870;52.448;13.270;2023-05-10T07:55:23;5.63;;;2.53;;
15536;SDS011;7870;52.448;13.270;2023-05-10T07:57:50;8.68;;;3.25;;
15536;SDS011;7870;52.448;13.270;2023-05-10T08:00:18;5.55;;;2.63;;
15536;SDS011;7870;52.448;13.270;2023-05-10T08:02:45;4.57;;;2.38;;
15536;SDS011;7870;52.448;13.270;2023-05-10T08:05:12;4.20;;;2.20;;
15536;SDS011;7870;52.448;13.270;2023-05-10T08:07:40;5.10;;;2.88;;
15536;SDS011;7870;52.448;13.270;2023-05-10T08:10:06;6.47;;;2.60;;
15536;SDS011;7870;52.448;13.270;2023-05-10T08:12:33;8.07;;;2.50;;
15536;SDS011;7870;52.448;13.270;2023-05-10T08:15:00;5.22;;;2.35;;
15536;SDS011;7870;52.448;13.270;2023-05-10T08:17:26;3.45;;;2.58;;
15536;SDS011;7870;52.448;13.270;2023-05-10T08:19:53;5.82;;;2.67;;
15536;SDS011;7870;52.448;13.270;2023-05-10T08:22:20;6.68;;;2.53;;
15536;SDS011;7870;52.448;13.270;2023-05-10T08:24:46;4.35;;;2.40;;
15536;SDS011;7870;52.448;13.270;2023-05-10T08:27:13;4.68;;;2.40;;
15536;SDS011;7870;52.448;13.270;2023-05-10T08:29:39;3.55;;;2.20;;
15536;SDS011;7870;52.448;13.270;2023-05-10T08:32:15;4.78;;;2.30;;
15536;SDS011;7870;52.448;13.270;2023-05-10T08:34:42;4.75;;;2.10;;
15536;SDS011;7870;52.448;13.270;2023-05-10T08:37:08;4.80;;;2.50;;
15536;SDS011;7870;52.448;13.270;2023-05-10T08:39:36;10.68;;;2.63;;
15536;SDS011;7870;52.448;13.270;2023-05-10T08:42:04;5.28;;;2.83;;
15536;SDS011;7870;52.448;13.270;2023-05-10T08:44:31;6.00;;;2.22;;
15536;SDS011;7870;52.448;13.270;2023-05-10T08:46:58;3.65;;;2.30;;
15536;SDS011;7870;52.448;13.270;2023-05-10T08:49:26;5.85;;;2.38;;
15536;SDS011;7870;52.448;13.270;2023-05-10T08:51:54;4.07;;;2.10;;
15536;SDS011;7870;52.448;13.270;2023-05-10T08:54:22;6.35;;;2.45;;
15536;SDS011;7870;52.448;13.270;2023-05-10T08:56:49;5.43;;;2.28;;
15536;SDS011;7870;52.448;13.270;2023-05-10T08:59:15;8.77;;;2.70;;
15536;SDS011;7870;52.448;13.270;2023-05-10T09:01:43;4.45;;;2.20;;
15536;SDS011;7870;52.448;13.270;2023-05-10T09:04:12;7.05;;;2.30;;
15536;SDS011;7870;52.448;13.270;2023-05-10T09:06:38;2.95;;;2.20;;
15536;SDS011;7870;52.448;13.270;2023-05-10T09:09:05;3.90;;;2.10;;
15536;SDS011;7870;52.448;13.270;2023-05-10T09:11:32;5.60;;;2.53;;
15536;SDS011;7870;52.448;13.270;2023-05-10T09:13:59;4.40;;;2.25;;
15536;SDS011;7870;52.448;13.270;2023-05-10T09:16:25;4.15;;;2.00;;
15536;SDS011;7870;52.448;13.270;2023-05-10T09:18:52;3.60;;;2.03;;
15536;SDS011;7870;52.448;13.270;2023-05-10T09:21:19;5.93;;;2.15;;
15536;SDS011;7870;52.448;13.270;2023-05-10T09:23:47;5.72;;;2.15;;
15536;SDS011;7870;52.448;13.270;2023-05-10T09:26:16;5.65;;;2.20;;
15536;SDS011;7870;52.448;13.270;2023-05-10T09:28:53;5.63;;;2.10;;
15536;SDS011;7870;52.448;13.270;2023-05-10T09:31:22;7.85;;;2.85;;
15536;SDS011;7870;52.448;13.270;2023-05-10T09:33:50;4.32;;;1.85;;
15536;SDS011;7870;52.448;13.270;2023-05-10T09:36:17;6.20;;;2.33;;
15536;SDS011;7870;52.448;13.270;2023-05-10T09:38:51;4.40;;;1.92;;
15536;SDS011;7870;52.448;13.270;2023-05-10T09:41:19;4.80;;;1.83;;
15536;SDS011;7870;52.448;13.270;2023-05-10T09:43:48;4.20;;;1.98;;
15536;SDS011;7870;52.448;13.270;2023-05-10T09:46:16;4.00;;;2.30;;
15536;SDS011;7870;52.448;13.270;2023-05-10T09:48:44;5.47;;;2.10;;
15536;SDS011;7870;52.448;13.270;2023-05-10T09:51:21;5.90;;;2.28;;
15536;SDS011;7870;52.448;13.270;2023-05-10T09:53:49;3.03;;;1.95;;
15536;SDS011;7870;52.448;13.270;2023-05-10T09:56:35;4.55;;;2.08;;
15536;SDS011;7870;52.448;13.270;2023-05-10T09:59:03;6.35;;;2.42;;
15536;SDS011;7870;52.448;13.270;2023-05-10T10:01:30;3.63;;;1.90;;
15536;SDS011;7870;52.448;13.270;2023-05-10T10:03:57;3.67;;;2.05;;
15536;SDS011;7870;52.448;13.270;2023-05-10T10:06:24;6.18;;;1.90;;
15536;SDS011;7870;52.448;13.270;2023-05-10T10:08:55;5.88;;;2.35;;
15536;SDS011;7870;52.448;13.270;2023-05-10T10:11:22;2.50;;;1.55;;
15536;SDS011;7870;52.448;13.270;2023-05-10T10:13:49;7.15;;;2.22;;
15536;SDS011;7870;52.448;13.270;2023-05-10T10:16:16;4.50;;;1.75;;
15536;SDS011;7870;52.448;13.270;2023-05-10T10:18:43;4.28;;;2.22;;
15536;SDS011;7870;52.448;13.270;2023-05-10T10:21:09;4.80;;;2.20;;
15536;SDS011;7870;52.448;13.270;2023-05-10T10:23:36;4.57;;;2.08;;
15536;SDS011;7870;52.448;13.270;2023-05-10T10:26:03;3.45;;;1.77;;
15536;SDS011;7870;52.448;13.270;2023-05-10T10:28:34;7.15;;;2.15;;
15536;SDS011;7870;52.448;13.270;2023-05-10T10:31:13;5.03;;;1.65;;
15536;SDS011;7870;52.448;13.270;2023-05-10T10:34:00;6.93;;;2.28;;
15536;SDS011;7870;52.448;13.270;2023-05-10T10:39:00;4.78;;;1.90;;
15536;SDS011;7870;52.448;13.270;2023-05-10T10:52:13;2.92;;;1.73;;
15536;SDS011;7870;52.448;13.270;2023-05-10T10:55:04;3.38;;;1.50;;
15536;SDS011;7870;52.448;13.270;2023-05-10T11:03:11;4.72;;;1.80;;
15536;SDS011;7870;52.448;13.270;2023-05-10T11:10:39;4.47;;;1.75;;
15536;SDS011;7870;52.448;13.270;2023-05-10T11:13:14;5.03;;;1.95;;
15536;SDS011;7870;52.448;13.270;2023-05-10T11:15:48;5.00;;;1.85;;
15536;SDS011;7870;52.448;13.270;2023-05-10T11:18:29;3.22;;;1.70;;
15536;SDS011;7870;52.448;13.270;2023-05-10T11:20:59;3.97;;;1.60;;
15536;SDS011;7870;52.448;13.270;2023-05-10T11:23:29;4.22;;;1.73;;
15536;SDS011;7870;52.448;13.270;2023-05-10T11:26:07;3.47;;;1.80;;
15536;SDS011;7870;52.448;13.270;2023-05-10T11:31:07;4.93;;;1.40;;
15536;SDS011;7870;52.448;13.270;2023-05-10T11:33:50;5.30;;;1.55;;
15536;SDS011;7870;52.448;13.270;2023-05-10T11:36:18;3.22;;;1.73;;
15536;SDS011;7870;52.448;13.270;2023-05-10T11:38:46;6.65;;;1.40;;
15536;SDS011;7870;52.448;13.270;2023-05-10T11:41:13;4.57;;;1.48;;
15536;SDS011;7870;52.448;13.270;2023-05-10T11:43:40;3.92;;;1.80;;
15536;SDS011;7870;52.448;13.270;2023-05-10T11:46:07;16.88;;;2.95;;
15536;SDS011;7870;52.448;13.270;2023-05-10T11:48:38;3.65;;;1.70;;
15536;SDS011;7870;52.448;13.270;2023-05-10T11:51:04;6.18;;;1.85;;
15536;SDS011;7870;52.448;13.270;2023-05-10T11:53:31;4.57;;;1.80;;
15536;SDS011;7870;52.448;13.270;2023-05-10T11:56:02;5.20;;;2.00;;
15536;SDS011;7870;52.448;13.270;2023-05-10T11:58:38;4.38;;;1.85;;
15536;SDS011;7870;52.448;13.270;2023-05-10T12:01:06;6.18;;;1.70;;
15536;SDS011;7870;52.448;13.270;2023-05-10T12:03:33;4.65;;;1.60;;
15536;SDS011;7870;52.448;13.270;2023-05-10T12:06:01;4.38;;;1.95;;
15536;SDS011;7870;52.448;13.270;2023-05-10T12:08:29;3.00;;;1.40;;
15536;SDS011;7870;52.448;13.270;2023-05-10T12:11:04;4.38;;;1.52;;
15536;SDS011;7870;52.448;13.270;2023-05-10T12:13:32;4.82;;;1.80;;
15536;SDS011;7870;52.448;13.270;2023-05-10T12:15:58;4.40;;;1.75;;
15536;SDS011;7870;52.448;13.270;2023-05-10T12:18:25;3.30;;;1.63;;
15536;SDS011;7870;52.448;13.270;2023-05-10T12:20:52;3.42;;;1.38;;
15536;SDS011;7870;52.448;13.270;2023-05-10T12:23:22;5.53;;;2.13;;
15536;SDS011;7870;52.448;13.270;2023-05-10T12:25:48;4.40;;;1.60;;
15536;SDS011;7870;52.448;13.270;2023-05-10T12:28:15;4.00;;;1.38;;
15536;SDS011;7870;52.448;13.270;2023-05-10T12:30:45;3.50;;;1.40;;
15536;SDS011;7870;52.448;13.270;2023-05-10T12:33:12;2.53;;;1.45;;
15536;SDS011;7870;52.448;13.270;2023-05-10T12:35:45;4.20;;;1.93;;
15536;SDS011;7870;52.448;13.270;2023-05-10T12:41:12;4.72;;;1.50;;
15536;SDS011;7870;52.448;13.270;2023-05-10T12:43:42;3.30;;;1.77;;
15536;SDS011;7870;52.448;13.270;2023-05-10T12:46:09;2.80;;;1.80;;
15536;SDS011;7870;52.448;13.270;2023-05-10T12:48:36;6.18;;;4.43;;
15536;SDS011;7870;52.448;13.270;2023-05-10T12:51:04;3.88;;;1.52;;
15536;SDS011;7870;52.448;13.270;2023-05-10T12:53:31;5.05;;;1.90;;
15536;SDS011;7870;52.448;13.270;2023-05-10T12:55:58;4.95;;;1.55;;
15536;SDS011;7870;52.448;13.270;2023-05-10T12:58:24;3.67;;;1.75;;
15536;SDS011;7870;52.448;13.270;2023-05-10T13:01:00;6.80;;;2.00;;
15536;SDS011;7870;52.448;13.270;2023-05-10T13:03:27;4.25;;;1.50;;
15536;SDS011;7870;52.448;13.270;2023-05-10T13:05:53;5.68;;;1.90;;
15536;SDS011;7870;52.448;13.270;2023-05-10T13:08:20;3.25;;;1.73;;
15536;SDS011;7870;52.448;13.270;2023-05-10T13:10:46;3.25;;;1.58;;
15536;SDS011;7870;52.448;13.270;2023-05-10T13:13:13;6.47;;;1.60;;
15536;SDS011;7870;52.448;13.270;2023-05-10T13:15:40;4.88;;;1.70;;
15536;SDS011;7870;52.448;13.270;2023-05-10T13:18:06;4.20;;;1.40;;
15536;SDS011;7870;52.448;13.270;2023-05-10T13:20:33;2.40;;;1.27;;
15536;SDS011;7870;52.448;13.270;2023-05-10T13:22:59;4.30;;;1.80;;
15536;SDS011;7870;52.448;13.270;2023-05-10T13:25:26;4.70;;;1.85;;
15536;SDS011;7870;52.448;13.270;2023-05-10T13:27:53;4.63;;;1.48;;
15536;SDS011;7870;52.448;13.270;2023-05-10T13:30:19;3.92;;;1.52;;
15536;SDS011;7870;52.448;13.270;2023-05-10T13:32:46;3.20;;;1.60;;
15536;SDS011;7870;52.448;13.270;2023-05-10T13:35:13;3.05;;;1.45;;
15536;SDS011;7870;52.448;13.270;2023-05-10T13:37:39;3.17;;;1.50;;
15536;SDS011;7870;52.448;13.270;2023-05-10T13:40:06;5.18;;;1.70;;
15536;SDS011;7870;52.448;13.270;2023-05-10T13:42:33;4.60;;;1.67;;
15536;SDS011;7870;52.448;13.270;2023-05-10T13:45:00;3.03;;;1.73;;
15536;SDS011;7870;52.448;13.270;2023-05-10T13:47:27;4.38;;;1.88;;
15536;SDS011;7870;52.448;13.270;2023-05-10T13:49:54;6.93;;;1.70;;
15536;SDS011;7870;52.448;13.270;2023-05-10T13:52:21;4.60;;;1.70;;
15536;SDS011;7870;52.448;13.270;2023-05-10T13:54:47;5.35;;;1.70;;
15536;SDS011;7870;52.448;13.270;2023-05-10T13:57:14;5.85;;;1.55;;
15536;SDS011;7870;52.448;13.270;2023-05-10T13:59:42;3.85;;;1.83;;
15536;SDS011;7870;52.448;13.270;2023-05-10T14:02:09;4.13;;;1.70;;
15536;SDS011;7870;52.448;13.270;2023-05-10T14:04:39;3.63;;;1.90;;
15536;SDS011;7870;52.448;13.270;2023-05-10T14:07:05;8.95;;;1.65;;
15536;SDS011;7870;52.448;13.270;2023-05-10T14:09:32;5.50;;;1.90;;
15536;SDS011;7870;52.448;13.270;2023-05-10T14:11:58;3.35;;;2.00;;
15536;SDS011;7870;52.448;13.270;2023-05-10T14:14:25;2.65;;;1.85;;
15536;SDS011;7870;52.448;13.270;2023-05-10T14:16:52;2.90;;;1.85;;
15536;SDS011;7870;52.448;13.270;2023-05-10T14:19:18;3.22;;;1.63;;
15536;SDS011;7870;52.448;13.270;2023-05-10T14:21:45;4.32;;;2.00;;
15536;SDS011;7870;52.448;13.270;2023-05-10T14:24:11;3.33;;;1.67;;
15536;SDS011;7870;52.448;13.270;2023-05-10T14:26:38;5.88;;;2.42;;
15536;SDS011;7870;52.448;13.270;2023-05-10T14:29:05;3.35;;;2.00;;
15536;SDS011;7870;52.448;13.270;2023-05-10T14:31:31;5.20;;;1.88;;
15536;SDS011;7870;52.448;13.270;2023-05-10T14:33:58;3.72;;;1.98;;
15536;SDS011;7870;52.448;13.270;2023-05-10T14:36:25;7.85;;;2.22;;
15536;SDS011;7870;52.448;13.270;2023-05-10T14:38:52;4.45;;;2.28;;
15536;SDS011;7870;52.448;13.270;2023-05-10T14:41:18;3.60;;;1.88;;
15536;SDS011;7870;52.448;13.270;2023-05-10T14:43:45;4.25;;;2.50;;
15536;SDS011;7870;52.448;13.270;2023-05-10T14:46:12;2.95;;;2.25;;
15536;SDS011;7870;52.448;13.270;2023-05-10T14:48:38;5.88;;;2.20;;
15536;SDS011;7870;52.448;13.270;2023-05-10T14:51:05;5.32;;;2.60;;
15536;SDS011;7870;52.448;13.270;2023-05-10T14:53:32;4.22;;;2.13;;
15536;SDS011;7870;52.448;13.270;2023-05-10T14:55:59;3.63;;;2.13;;
15536;SDS011;7870;52.448;13.270;2023-05-10T14:58:27;4.65;;;2.10;;
15536;SDS011;7870;52.448;13.270;2023-05-10T15:00:54;3.47;;;1.90;;
15536;SDS011;7870;52.448;13.270;2023-05-10T15:03:20;3.35;;;2.20;;
15536;SDS011;7870;52.448;13.270;2023-05-10T15:05:47;4.25;;;2.25;;
15536;SDS011;7870;52.448;13.270;2023-05-10T15:08:14;5.43;;;2.17;;
15536;SDS011;7870;52.448;13.270;2023-05-10T15:10:41;4.60;;;2.03;;
15536;SDS011;7870;52.448;13.270;2023-05-10T15:13:07;4.78;;;2.40;;
15536;SDS011;7870;52.448;13.270;2023-05-10T15:15:34;4.10;;;2.28;;
15536;SDS011;7870;52.448;13.270;2023-05-10T15:18:00;3.58;;;2.03;;
15536;SDS011;7870;52.448;13.270;2023-05-10T15:20:27;4.97;;;2.30;;
15536;SDS011;7870;52.448;13.270;2023-05-10T15:22:54;4.90;;;2.30;;
15536;SDS011;7870;52.448;13.270;2023-05-10T15:25:20;3.63;;;2.30;;
15536;SDS011;7870;52.448;13.270;2023-05-10T15:27:47;5.78;;;2.67;;